Terminal Aerodrome Forecast
Issued by NWS Melbourne, FL

Home | Current Version | Previous Version | Text Only | Print | Product List | Glossary On
Versions: 1 2 3 4 5 6 7 8 9 10 11 12 13 14 15 16 17 18 19 20 21 22 23 24
987
FTUS42 KMLB 182056 AAA
TAFMCO
TAF AMD
KMCO 182056Z 1821/1924 02008KT P6SM SCT300
     FM190000 36004KT P6SM SCT250
     FM191500 05005KT P6SM SCT250=

USA.gov is the U.S. government's official web portal to all federal, state and local government web resources and services.